Time;durP1;ratioP1;P1;durP2;ratioP2;P2;SDS_P1;SDS_P2;PMS_P1;PMS_P2;Temp;Humidity;BMP_temperature;BMP_pressure;BME280_temperature;BME280_humidity;BME280_pressure;Samples;Min_cycle;Max_cycle;Signal;HPM_P1;HPM_P2
2023/10/06 00:01:48;;;;;;;1.40;0.63;;;13.40;99.90;;;;;;4957253;28;20526;-72
2023/10/06 00:04:15;;;;;;;2.05;0.40;;;13.30;99.90;;;;;;4949278;28;20038;-71
2023/10/06 00:06:42;;;;;;;1.38;0.47;;;13.40;99.90;;;;;;4943113;28;20069;-71
2023/10/06 00:09:30;;;;;;;2.97;0.85;;;13.30;99.90;;;;;;4949589;28;20189;-72
2023/10/06 00:11:56;;;;;;;2.00;0.63;;;13.30;99.90;;;;;;4969486;28;20067;-72
2023/10/06 00:14:40;;;;;;;2.35;0.65;;;13.30;99.90;;;;;;4947502;28;20046;-72
2023/10/06 00:17:17;;;;;;;1.55;0.60;;;13.30;99.90;;;;;;4945788;28;20043;-72
2023/10/06 00:19:51;;;;;;;1.58;0.52;;;13.30;99.90;;;;;;4947541;28;20058;-72
2023/10/06 00:24:46;;;;;;;3.17;0.85;;;13.30;99.90;;;;;;4962129;28;20045;-72
2023/10/06 00:27:12;;;;;;;1.85;0.60;;;13.40;99.90;;;;;;4947283;28;20071;-72
2023/10/06 00:29:39;;;;;;;1.48;0.75;;;13.40;99.90;;;;;;4943661;28;20063;-72
2023/10/06 00:32:26;;;;;;;2.78;0.68;;;13.40;99.90;;;;;;4951875;28;20114;-72
2023/10/06 00:38:04;;;;;;;5.15;1.13;;;13.40;99.90;;;;;;4911977;28;20051;-73
2023/10/06 00:40:30;;;;;;;6.22;0.70;;;13.40;99.90;;;;;;4945068;28;20118;-73
2023/10/06 00:43:00;;;;;;;2.15;0.80;;;13.40;99.90;;;;;;4940234;28;20165;-72
2023/10/06 00:45:26;;;;;;;4.35;0.63;;;13.40;99.90;;;;;;4945878;28;20094;-72
2023/10/06 00:47:56;;;;;;;2.70;0.88;;;13.40;99.90;;;;;;4963620;28;20043;-72
2023/10/06 00:50:24;;;;;;;3.00;0.93;;;13.40;99.90;;;;;;4949853;28;20026;-73
2023/10/06 00:52:51;;;;;;;4.00;0.80;;;13.40;99.90;;;;;;4952470;28;20061;-72
2023/10/06 00:55:19;;;;;;;6.30;1.35;;;13.40;99.90;;;;;;4952135;28;20191;-72
2023/10/06 00:57:53;;;;;;;2.08;1.17;;;13.50;99.90;;;;;;4947779;28;20047;-72
2023/10/06 01:00:20;;;;;;;2.80;0.80;;;13.40;99.90;;;;;;4963455;28;20089;-72
2023/10/06 01:02:47;;;;;;;1.73;0.80;;;13.50;99.90;;;;;;4950340;28;20045;-72
2023/10/06 01:05:17;;;;;;;4.32;0.60;;;13.40;99.90;;;;;;4947904;28;20399;-72
2023/10/06 01:07:46;;;;;;;5.68;0.90;;;13.50;99.90;;;;;;4966739;28;20130;-72
2023/10/06 01:10:17;;;;;;;2.03;1.02;;;13.50;99.90;;;;;;4965932;28;20110;-73
2023/10/06 01:12:50;;;;;;;1.77;0.88;;;13.50;99.90;;;;;;4966494;28;20039;-72
2023/10/06 01:15:20;;;;;;;1.25;0.65;;;13.50;99.90;;;;;;4951311;28;20050;-73
2023/10/06 01:17:53;;;;;;;2.42;0.60;;;13.50;99.90;;;;;;4949818;28;20047;-73
2023/10/06 01:20:36;;;;;;;1.38;0.90;;;13.50;99.90;;;;;;4949048;28;20053;-72
2023/10/06 01:23:02;;;;;;;1.25;0.88;;;13.50;99.90;;;;;;4954552;28;20450;-72
2023/10/06 01:25:34;;;;;;;0.77;0.55;;;13.50;99.90;;;;;;4948573;28;20101;-72
2023/10/06 01:28:03;;;;;;;2.72;0.75;;;13.50;99.90;;;;;;4945305;28;20463;-71
2023/10/06 01:30:29;;;;;;;2.38;0.98;;;13.40;99.90;;;;;;4948308;28;20042;-72
2023/10/06 01:32:58;;;;;;;1.92;0.77;;;13.40;99.90;;;;;;4950741;28;20101;-72
2023/10/06 01:35:24;;;;;;;2.38;0.70;;;13.40;99.90;;;;;;4941794;28;20039;-72
2023/10/06 01:38:05;;;;;;;4.57;1.00;;;13.40;99.90;;;;;;4951265;28;20050;-72
2023/10/06 01:42:57;;;;;;;2.53;1.08;;;13.40;99.90;;;;;;4949296;28;20054;-72
2023/10/06 01:45:23;;;;;;;2.13;0.82;;;13.40;99.90;;;;;;4946203;28;20097;-72
2023/10/06 01:50:35;;;;;;;2.80;1.35;;;13.30;99.90;;;;;;4963968;28;20043;-73
2023/10/06 01:53:06;;;;;;;4.50;1.02;;;13.30;99.90;;;;;;4951818;28;20514;-72
2023/10/06 01:55:37;;;;;;;1.80;0.88;;;13.30;99.90;;;;;;4951314;28;20478;-74
2023/10/06 01:58:04;;;;;;;3.03;0.95;;;13.30;99.90;;;;;;4937589;28;20046;-72
2023/10/06 02:00:35;;;;;;;2.08;0.82;;;13.30;99.90;;;;;;4949336;28;20118;-72
2023/10/06 02:03:03;;;;;;;2.53;1.17;;;13.20;99.90;;;;;;4962945;28;20496;-72
2023/10/06 02:05:29;;;;;;;1.95;1.10;;;13.20;99.90;;;;;;4948917;28;20043;-72
2023/10/06 02:08:01;;;;;;;5.32;1.52;;;13.20;99.90;;;;;;4964948;28;20097;-72
2023/10/06 02:10:27;;;;;;;1.20;0.82;;;13.30;99.90;;;;;;4957691;28;20039;-72
2023/10/06 02:12:53;;;;;;;3.45;1.10;;;13.30;99.90;;;;;;4940943;28;20063;-72
2023/10/06 02:15:19;;;;;;;6.55;1.35;;;13.30;99.90;;;;;;4952642;28;20181;-73
2023/10/06 02:17:44;;;;;;;1.45;0.82;;;13.30;99.90;;;;;;4959043;28;20434;-72
2023/10/06 02:20:29;;;;;;;2.17;1.35;;;13.40;99.90;;;;;;4949145;28;20110;-72
2023/10/06 02:22:59;;;;;;;3.35;1.30;;;13.40;99.90;;;;;;4944862;28;20122;-72
2023/10/06 02:25:26;;;;;;;2.75;1.10;;;13.40;99.90;;;;;;4967604;28;20074;-72
2023/10/06 02:27:53;;;;;;;1.73;0.98;;;13.40;99.90;;;;;;4948493;28;20291;-71
2023/10/06 02:30:33;;;;;;;3.72;1.30;;;13.40;99.90;;;;;;4950716;28;20031;-72
2023/10/06 02:33:05;;;;;;;1.95;1.38;;;13.40;99.90;;;;;;4950436;28;20490;-72
2023/10/06 02:35:34;;;;;;;2.72;0.90;;;13.40;99.90;;;;;;4952498;28;20046;-72
2023/10/06 02:38:05;;;;;;;1.17;0.85;;;13.40;99.90;;;;;;4960899;28;20055;-72
2023/10/06 02:40:38;;;;;;;6.22;1.15;;;13.40;99.90;;;;;;4952639;28;20047;-72
2023/10/06 02:43:09;;;;;;;2.45;1.20;;;13.40;99.90;;;;;;4961442;28;20145;-72
2023/10/06 02:45:40;;;;;;;2.10;0.90;;;13.40;99.90;;;;;;4950902;28;20142;-71
2023/10/06 02:48:16;;;;;;;2.42;1.15;;;13.40;99.90;;;;;;4949412;28;20060;-72
2023/10/06 02:50:45;;;;;;;1.90;0.98;;;13.40;99.90;;;;;;4945697;28;20039;-71
2023/10/06 02:53:14;;;;;;;1.63;0.47;;;13.40;99.90;;;;;;4950755;28;20046;-71
2023/10/06 02:55:44;;;;;;;2.25;0.93;;;13.40;99.90;;;;;;4944515;28;20102;-71
2023/10/06 02:58:30;;;;;;;5.28;1.13;;;13.40;99.90;;;;;;4942377;28;20119;-72
2023/10/06 03:00:59;;;;;;;5.85;1.42;;;13.40;99.90;;;;;;4954655;28;20047;-72
2023/10/06 03:03:28;;;;;;;2.15;0.90;;;13.50;99.90;;;;;;4937235;28;20039;-71
2023/10/06 03:05:55;;;;;;;3.60;1.23;;;13.40;99.90;;;;;;4946015;28;20050;-71
2023/10/06 03:08:23;;;;;;;1.67;0.88;;;13.50;99.90;;;;;;4943740;28;20046;-72
2023/10/06 03:10:49;;;;;;;2.10;0.82;;;13.50;99.90;;;;;;4930244;28;20032;-72
2023/10/06 03:13:17;;;;;;;5.28;1.35;;;13.40;99.90;;;;;;4924667;28;20047;-72
2023/10/06 03:15:45;;;;;;;3.13;1.10;;;13.40;99.90;;;;;;4944649;28;20058;-72
2023/10/06 03:18:15;;;;;;;2.30;1.15;;;13.40;99.90;;;;;;4942351;28;20043;-72
2023/10/06 03:20:49;;;;;;;5.00;1.13;;;13.40;99.90;;;;;;4922106;28;20043;-72
2023/10/06 03:23:38;;;;;;;2.97;1.10;;;13.30;99.90;;;;;;4937226;28;20255;-71
2023/10/06 03:26:04;;;;;;;4.22;1.10;;;13.30;99.90;;;;;;4942435;28;20050;-72
2023/10/06 03:28:42;;;;;;;2.40;1.13;;;13.20;99.90;;;;;;4957819;28;20548;-73
2023/10/06 03:33:44;;;;;;;6.80;1.27;;;13.20;99.90;;;;;;4941887;28;20145;-73
2023/10/06 03:36:11;;;;;;;3.80;1.70;;;13.10;99.90;;;;;;4958731;28;20036;-72
2023/10/06 03:38:42;;;;;;;2.83;1.33;;;13.10;99.90;;;;;;4940023;28;20070;-72
2023/10/06 03:41:25;;;;;;;2.28;1.33;;;13.10;99.90;;;;;;4936213;28;20047;-72
2023/10/06 03:43:51;;;;;;;2.05;1.02;;;13.10;99.90;;;;;;4943365;28;20047;-71
2023/10/06 03:46:20;;;;;;;5.32;1.50;;;13.10;99.90;;;;;;4951865;29;20062;-73
2023/10/06 03:48:48;;;;;;;1.63;0.95;;;13.10;99.90;;;;;;4941751;28;20051;-71
2023/10/06 03:51:16;;;;;;;4.65;1.38;;;13.10;99.90;;;;;;4948927;28;20072;-72
2023/10/06 03:53:42;;;;;;;2.28;1.25;;;13.20;99.90;;;;;;4944735;28;20097;-71
2023/10/06 03:56:16;;;;;;;5.00;1.25;;;13.20;99.90;;;;;;4933917;29;20407;-72
2023/10/06 03:58:44;;;;;;;2.92;1.08;;;13.20;99.90;;;;;;4940866;28;20114;-72
2023/10/06 04:01:11;;;;;;;4.88;1.02;;;13.10;99.90;;;;;;4946428;28;20147;-72
2023/10/06 04:03:38;;;;;;;3.00;1.33;;;13.10;99.90;;;;;;4945745;28;20043;-73
2023/10/06 04:06:04;;;;;;;2.33;0.95;;;13.10;99.90;;;;;;4945551;28;20044;-72
2023/10/06 04:08:30;;;;;;;3.58;1.10;;;13.10;99.90;;;;;;4956459;28;20111;-73
2023/10/06 04:10:58;;;;;;;4.25;0.90;;;13.10;99.90;;;;;;4930850;28;20043;-73
2023/10/06 04:13:25;;;;;;;4.00;1.02;;;13.10;99.90;;;;;;4942585;28;20074;-72
2023/10/06 04:15:52;;;;;;;2.53;0.98;;;13.10;99.90;;;;;;4949308;28;20118;-73
2023/10/06 04:18:22;;;;;;;4.80;1.15;;;13.20;99.90;;;;;;4940420;28;20176;-72
2023/10/06 04:20:49;;;;;;;6.22;1.60;;;13.10;99.90;;;;;;4945786;28;20057;-73
2023/10/06 04:23:22;;;;;;;5.30;1.02;;;13.20;99.90;;;;;;4941541;28;20031;-73
2023/10/06 04:25:50;;;;;;;2.47;1.08;;;13.10;99.90;;;;;;4928557;28;20035;-73
2023/10/06 04:28:16;;;;;;;4.05;1.00;;;13.10;99.90;;;;;;4949359;28;20183;-73
2023/10/06 04:30:44;;;;;;;1.92;0.90;;;13.10;99.90;;;;;;4925558;28;20094;-73
2023/10/06 04:33:11;;;;;;;4.20;1.08;;;13.10;99.90;;;;;;4944218;28;20111;-73
2023/10/06 04:35:47;;;;;;;2.40;0.75;;;13.00;99.90;;;;;;4943159;28;20102;-73
2023/10/06 04:38:13;;;;;;;2.08;0.77;;;13.10;99.90;;;;;;4953471;28;20117;-73
2023/10/06 04:40:42;;;;;;;2.10;1.00;;;13.00;99.90;;;;;;4945259;28;20110;-73
2023/10/06 04:43:09;;;;;;;1.48;0.70;;;13.00;99.90;;;;;;4941231;28;20066;-74
2023/10/06 04:45:38;;;;;;;1.35;0.65;;;13.00;99.90;;;;;;4948848;28;20063;-72
2023/10/06 04:48:07;;;;;;;2.15;0.65;;;12.90;99.90;;;;;;4942312;28;20050;-73
2023/10/06 04:50:34;;;;;;;5.05;0.73;;;12.90;99.90;;;;;;4949035;28;20110;-73
2023/10/06 04:53:00;;;;;;;1.52;0.85;;;13.00;99.90;;;;;;4942274;28;20047;-72
2023/10/06 04:55:27;;;;;;;0.90;0.50;;;13.00;99.90;;;;;;4960730;28;20043;-73
2023/10/06 04:57:52;;;;;;;2.38;0.68;;;12.90;99.90;;;;;;4939274;28;20051;-72
2023/10/06 05:00:22;;;;;;;1.95;1.35;;;12.90;99.90;;;;;;4931516;28;20054;-73
2023/10/06 05:02:50;;;;;;;2.83;0.77;;;13.00;99.90;;;;;;4933410;29;20050;-72
2023/10/06 05:05:19;;;;;;;2.65;0.73;;;13.00;99.90;;;;;;4930679;28;20046;-73
2023/10/06 05:07:49;;;;;;;1.77;0.40;;;13.00;99.90;;;;;;4944454;28;20508;-72
2023/10/06 05:10:21;;;;;;;0.77;0.43;;;13.00;99.90;;;;;;4943821;28;20035;-72
2023/10/06 05:12:48;;;;;;;2.70;0.85;;;13.00;99.90;;;;;;4943563;28;20047;-72
2023/10/06 05:15:33;;;;;;;3.05;1.00;;;13.10;99.90;;;;;;4950465;28;20132;-73
2023/10/06 05:18:00;;;;;;;3.97;0.95;;;13.00;99.90;;;;;;4940024;28;20043;-72
2023/10/06 05:20:30;;;;;;;2.03;0.68;;;13.00;99.90;;;;;;4941425;28;20580;-73
2023/10/06 05:22:58;;;;;;;2.47;0.80;;;13.10;99.90;;;;;;4946269;28;20042;-73
2023/10/06 05:25:29;;;;;;;3.58;0.77;;;13.10;99.90;;;;;;4938828;28;20506;-72
2023/10/06 05:27:59;;;;;;;1.75;0.73;;;13.10;99.90;;;;;;4948338;28;20047;-72
2023/10/06 05:30:29;;;;;;;1.85;0.85;;;13.10;99.90;;;;;;4945869;29;20089;-72
2023/10/06 05:32:58;;;;;;;3.45;1.05;;;13.10;99.90;;;;;;4949010;28;20118;-72
2023/10/06 05:35:29;;;;;;;5.82;0.95;;;13.20;99.90;;;;;;4941695;28;20400;-70
2023/10/06 05:37:55;;;;;;;2.83;1.17;;;13.20;99.90;;;;;;4945784;28;20415;-70
2023/10/06 05:40:21;;;;;;;5.53;1.15;;;13.20;99.90;;;;;;4958268;28;20044;-71
2023/10/06 05:42:50;;;;;;;1.10;0.63;;;13.20;99.90;;;;;;4957387;28;20151;-71
2023/10/06 05:45:19;;;;;;;2.67;0.80;;;13.30;99.90;;;;;;4940264;28;20419;-71
2023/10/06 05:47:46;;;;;;;1.80;1.00;;;13.30;99.90;;;;;;4928164;29;20384;-71
2023/10/06 05:50:27;;;;;;;1.58;0.80;;;13.30;99.90;;;;;;4940728;28;20085;-72
2023/10/06 05:53:01;;;;;;;2.38;0.82;;;13.30;99.90;;;;;;4942022;28;20039;-72
2023/10/06 05:55:43;;;;;;;3.75;1.15;;;13.30;99.90;;;;;;4941079;28;20194;-72
2023/10/06 05:58:14;;;;;;;2.83;1.00;;;13.30;99.90;;;;;;4941560;28;20047;-71
2023/10/06 06:00:50;;;;;;;3.33;0.90;;;13.40;99.90;;;;;;4943463;28;20051;-72
2023/10/06 06:03:23;;;;;;;1.98;0.70;;;13.40;99.90;;;;;;4929352;28;20047;-72
2023/10/06 06:05:50;;;;;;;6.90;1.02;;;13.50;99.90;;;;;;4946430;28;20252;-72
2023/10/06 06:08:16;;;;;;;1.75;0.63;;;13.50;99.90;;;;;;4962205;28;20036;-72
2023/10/06 06:10:42;;;;;;;4.25;0.90;;;13.50;99.90;;;;;;4959636;28;20039;-72
2023/10/06 06:13:08;;;;;;;1.33;0.75;;;13.60;99.90;;;;;;4949947;28;20093;-72
2023/10/06 06:15:35;;;;;;;2.25;1.25;;;13.60;99.90;;;;;;4941171;28;20133;-72
2023/10/06 06:18:01;;;;;;;2.95;0.80;;;13.70;99.90;;;;;;4934878;28;20047;-72
2023/10/06 06:20:30;;;;;;;3.50;1.60;;;13.70;99.90;;;;;;4956458;28;20071;-73
2023/10/06 06:22:59;;;;;;;2.63;1.35;;;13.80;99.90;;;;;;4942581;28;20120;-73
2023/10/06 06:25:31;;;;;;;5.90;1.00;;;13.80;99.90;;;;;;4941153;28;20066;-72
2023/10/06 06:27:59;;;;;;;5.25;1.30;;;13.80;99.90;;;;;;4959442;28;20503;-72
2023/10/06 06:30:27;;;;;;;2.85;1.33;;;13.90;99.90;;;;;;4941925;28;20047;-72
2023/10/06 06:32:54;;;;;;;2.25;1.05;;;13.90;99.90;;;;;;4940285;29;20035;-72
2023/10/06 06:35:21;;;;;;;2.97;1.10;;;13.90;99.90;;;;;;4953589;28;20689;-72
2023/10/06 06:37:59;;;;;;;1.73;0.73;;;14.00;99.90;;;;;;4956889;28;20071;-73
2023/10/06 06:40:26;;;;;;;2.40;1.20;;;14.00;99.90;;;;;;4940010;28;20039;-72
2023/10/06 06:42:53;;;;;;;4.00;1.27;;;14.00;99.90;;;;;;4938834;28;20039;-72
2023/10/06 06:45:19;;;;;;;6.00;1.05;;;14.10;99.90;;;;;;4939435;28;20062;-72
2023/10/06 06:47:46;;;;;;;5.50;0.88;;;14.10;99.90;;;;;;4942008;28;20099;-71
2023/10/06 06:50:13;;;;;;;1.95;1.05;;;14.20;99.90;;;;;;4937839;29;20043;-72
2023/10/06 06:52:43;;;;;;;2.65;1.42;;;14.20;99.90;;;;;;4953220;28;20146;-72
2023/10/06 06:55:17;;;;;;;2.63;1.13;;;14.20;99.90;;;;;;4938811;29;20039;-71
2023/10/06 06:57:44;;;;;;;4.55;1.20;;;14.20;99.90;;;;;;4936997;29;20127;-72
2023/10/06 07:00:15;;;;;;;2.72;0.98;;;14.20;99.90;;;;;;4938681;28;20039;-71
2023/10/06 07:02:52;;;;;;;2.25;0.88;;;14.30;99.90;;;;;;4926390;28;20042;-71
2023/10/06 07:05:22;;;;;;;1.95;0.75;;;14.30;99.90;;;;;;4952991;28;20455;-71
2023/10/06 07:07:50;;;;;;;4.85;0.93;;;14.30;99.90;;;;;;4954561;28;20074;-71
2023/10/06 07:10:22;;;;;;;4.80;1.13;;;14.30;99.90;;;;;;4941692;28;20039;-71
2023/10/06 07:12:50;;;;;;;3.08;1.30;;;14.40;99.90;;;;;;4955071;28;20092;-71
2023/10/06 07:15:20;;;;;;;1.02;0.65;;;14.40;99.90;;;;;;4926628;29;20372;-72
2023/10/06 07:17:49;;;;;;;1.80;0.60;;;14.40;99.90;;;;;;4951800;28;20067;-72
2023/10/06 07:20:24;;;;;;;3.25;0.90;;;14.40;99.90;;;;;;4935454;28;20046;-72
2023/10/06 07:22:54;;;;;;;3.53;1.17;;;14.50;99.90;;;;;;4939267;28;20125;-72
2023/10/06 07:25:21;;;;;;;3.83;1.13;;;14.50;99.90;;;;;;4932620;28;20043;-72
2023/10/06 07:27:49;;;;;;;1.55;0.85;;;14.40;99.90;;;;;;4922967;28;20578;-71
2023/10/06 07:30:16;;;;;;;1.33;1.05;;;14.40;99.90;;;;;;4940019;28;20039;-71
2023/10/06 07:32:46;;;;;;;2.58;0.93;;;14.40;99.90;;;;;;4937272;28;20501;-73
2023/10/06 07:35:19;;;;;;;5.05;0.75;;;14.40;99.90;;;;;;4936407;28;20119;-71
2023/10/06 07:37:47;;;;;;;2.97;1.30;;;14.50;99.90;;;;;;4945974;28;20043;-71
2023/10/06 07:40:15;;;;;;;1.33;0.80;;;14.50;99.90;;;;;;4937008;28;20036;-72
2023/10/06 07:42:46;;;;;;;2.58;0.82;;;14.50;99.90;;;;;;4935931;28;20496;-72
2023/10/06 07:45:13;;;;;;;6.63;1.50;;;14.60;99.90;;;;;;4949444;28;20165;-72
2023/10/06 07:47:39;;;;;;;1.75;1.05;;;14.70;99.90;;;;;;4936817;28;20040;-72
2023/10/06 07:50:07;;;;;;;5.30;1.23;;;14.70;99.90;;;;;;4941235;28;20164;-72
2023/10/06 07:52:33;;;;;;;1.98;0.90;;;14.80;99.90;;;;;;4922068;28;20676;-73
2023/10/06 07:55:00;;;;;;;1.77;0.80;;;14.90;99.90;;;;;;4939978;28;20248;-73
2023/10/06 07:57:31;;;;;;;3.47;0.82;;;14.90;99.90;;;;;;4929065;28;20496;-73
2023/10/06 08:00:04;;;;;;;3.15;0.80;;;14.90;99.90;;;;;;4936516;28;20054;-73
2023/10/06 08:02:29;;;;;;;3.15;1.27;;;14.90;99.90;;;;;;4946400;28;20047;-73
2023/10/06 08:04:55;;;;;;;2.47;0.80;;;15.00;99.90;;;;;;4923399;28;20050;-73
2023/10/06 08:07:26;;;;;;;1.80;0.82;;;15.00;99.90;;;;;;4940771;28;20039;-73
2023/10/06 08:09:56;;;;;;;1.17;0.90;;;15.00;99.90;;;;;;4958374;28;20567;-73
2023/10/06 08:12:23;;;;;;;1.42;0.65;;;15.00;99.90;;;;;;4942840;28;20049;-73
2023/10/06 08:14:49;;;;;;;4.88;1.40;;;15.00;99.90;;;;;;4938584;28;20495;-73
2023/10/06 08:17:15;;;;;;;5.55;0.95;;;15.00;99.90;;;;;;4942436;28;20043;-72
2023/10/06 08:19:40;;;;;;;4.75;1.13;;;15.10;99.90;;;;;;4944216;28;20046;-73
2023/10/06 08:22:06;;;;;;;3.75;0.80;;;15.10;99.90;;;;;;4942469;28;20043;-73
2023/10/06 08:24:32;;;;;;;2.70;0.90;;;15.10;99.90;;;;;;4939754;28;20159;-73
2023/10/06 08:27:00;;;;;;;3.40;0.93;;;15.00;99.90;;;;;;4938093;28;20053;-72
2023/10/06 08:29:25;;;;;;;2.00;0.70;;;15.10;99.90;;;;;;4943630;28;20491;-73
2023/10/06 08:31:53;;;;;;;2.00;1.10;;;15.20;99.90;;;;;;4944465;28;20046;-72
2023/10/06 08:34:21;;;;;;;4.18;0.98;;;15.30;99.90;;;;;;4949022;28;20103;-72
2023/10/06 08:36:47;;;;;;;4.35;0.88;;;15.40;99.90;;;;;;4955719;28;20428;-72
2023/10/06 08:39:14;;;;;;;2.15;1.00;;;15.50;99.90;;;;;;4949179;28;20145;-72
2023/10/06 08:41:45;;;;;;;0.98;0.63;;;15.60;99.90;;;;;;4928298;29;20053;-72
2023/10/06 08:44:14;;;;;;;3.85;1.25;;;15.60;99.90;;;;;;4945843;28;20130;-72
2023/10/06 08:46:44;;;;;;;1.88;0.90;;;15.70;99.90;;;;;;4934835;29;20150;-72
2023/10/06 08:49:11;;;;;;;3.17;1.52;;;15.70;99.90;;;;;;4932519;28;20074;-72
2023/10/06 08:51:40;;;;;;;2.38;1.23;;;15.70;99.90;;;;;;4948362;28;20059;-73
2023/10/06 08:54:13;;;;;;;1.00;0.50;;;15.70;99.90;;;;;;4948478;28;20035;-70
2023/10/06 08:56:39;;;;;;;1.83;1.08;;;15.70;99.90;;;;;;4944009;28;20042;-70
2023/10/06 08:59:05;;;;;;;3.53;0.90;;;15.70;99.90;;;;;;4948355;28;20484;-71
2023/10/06 09:01:32;;;;;;;2.65;0.70;;;15.80;99.90;;;;;;4940992;29;20080;-71
2023/10/06 09:04:04;;;;;;;1.40;0.88;;;15.80;99.90;;;;;;4941038;28;20047;-71
2023/10/06 09:06:31;;;;;;;2.88;0.75;;;15.90;99.90;;;;;;4942844;28;20047;-71
2023/10/06 09:08:57;;;;;;;1.15;0.73;;;16.00;99.90;;;;;;4944851;28;20574;-71
2023/10/06 09:11:41;;;;;;;8.70;1.20;;;16.10;99.90;;;;;;4940990;28;20063;-71
2023/10/06 09:14:07;;;;;;;2.08;1.17;;;16.30;99.90;;;;;;4957882;28;20046;-72
2023/10/06 09:17:01;;;;;;;3.65;0.98;;;16.50;99.90;;;;;;4944086;28;20066;-72
2023/10/06 09:19:46;;;;;;;5.18;1.05;;;16.50;99.90;;;;;;4943590;28;20543;-72
2023/10/06 09:22:12;;;;;;;2.53;0.90;;;16.60;99.90;;;;;;4944505;29;20048;-72
2023/10/06 09:24:39;;;;;;;1.40;0.70;;;16.70;99.90;;;;;;4944189;28;20055;-71
2023/10/06 09:27:21;;;;;;;1.95;1.00;;;16.70;99.90;;;;;;4958019;28;20054;-71
2023/10/06 09:29:47;;;;;;;2.83;1.13;;;17.10;99.90;;;;;;4943641;28;20040;-71
2023/10/06 09:32:23;;;;;;;4.07;0.90;;;17.30;99.90;;;;;;4959394;28;20074;-71
2023/10/06 09:34:53;;;;;;;1.35;1.00;;;17.50;99.90;;;;;;4940016;28;20051;-72
2023/10/06 09:37:22;;;;;;;2.03;0.63;;;17.60;99.90;;;;;;4939954;28;20055;-71
2023/10/06 09:40:10;;;;;;;3.10;1.05;;;17.60;99.90;;;;;;4946948;28;20074;-71
2023/10/06 09:42:36;;;;;;;2.67;0.93;;;17.70;99.90;;;;;;4938460;28;20133;-71
2023/10/06 09:45:15;;;;;;;1.70;0.68;;;17.70;99.90;;;;;;4945568;29;20051;-71
2023/10/06 09:47:59;;;;;;;3.90;0.80;;;17.70;99.90;;;;;;4942317;28;20051;-72
2023/10/06 09:50:26;;;;;;;0.85;0.40;;;17.90;99.90;;;;;;4953566;28;20043;-71
2023/10/06 09:52:52;;;;;;;2.30;1.05;;;18.00;99.90;;;;;;4948154;29;20106;-71
2023/10/06 09:55:21;;;;;;;3.17;1.00;;;18.20;99.90;;;;;;4943955;28;20051;-72
2023/10/06 09:57:48;;;;;;;2.78;1.08;;;18.30;99.90;;;;;;4943273;28;20035;-71
2023/10/06 10:00:18;;;;;;;2.90;0.88;;;18.30;99.90;;;;;;4940301;28;20047;-72
2023/10/06 10:02:49;;;;;;;3.47;1.35;;;18.30;99.90;;;;;;4954736;28;20082;-72
2023/10/06 10:05:19;;;;;;;1.65;0.63;;;18.40;99.90;;;;;;4926790;29;20069;-72
2023/10/06 10:07:46;;;;;;;2.28;0.80;;;18.60;99.90;;;;;;4940272;29;20043;-72
2023/10/06 10:10:13;;;;;;;1.95;0.60;;;19.00;99.90;;;;;;4940064;28;20071;-72
2023/10/06 10:13:00;;;;;;;2.92;1.13;;;19.30;99.90;;;;;;4941099;29;20512;-72
2023/10/06 10:15:59;;;;;;;1.17;0.50;;;19.50;99.90;;;;;;4958433;28;20039;-72
2023/10/06 10:18:52;;;;;;;1.52;0.40;;;19.70;99.90;;;;;;4929063;29;20047;-72
2023/10/06 10:21:19;;;;;;;4.97;0.70;;;20.00;99.90;;;;;;4921965;28;20519;-73
2023/10/06 10:23:45;;;;;;;3.65;0.70;;;21.10;99.90;;;;;;4941312;29;20066;-73
2023/10/06 10:26:33;;;;;;;2.30;1.05;;;22.00;99.90;;;;;;4942113;28;20035;-71
2023/10/06 10:29:17;;;;;;;1.77;0.70;;;22.60;99.90;;;;;;4943919;28;20035;-72
2023/10/06 10:31:46;;;;;;;3.10;0.70;;;22.50;99.90;;;;;;4940892;28;20522;-73
2023/10/06 10:34:20;;;;;;;1.85;0.95;;;22.10;99.90;;;;;;4942263;28;20173;-74
2023/10/06 10:37:06;;;;;;;1.40;0.70;;;21.50;99.90;;;;;;4944625;28;20448;-74
2023/10/06 10:39:49;;;;;;;2.20;0.80;;;21.10;99.90;;;;;;4927003;28;20055;-74
2023/10/06 10:42:21;;;;;;;2.58;0.55;;;20.80;99.90;;;;;;4949308;28;20129;-74
2023/10/06 10:44:48;;;;;;;0.75;0.45;;;20.60;99.90;;;;;;4947991;28;20063;-74
2023/10/06 10:47:16;;;;;;;0.90;0.30;;;20.30;99.90;;;;;;4948342;28;20512;-73
2023/10/06 10:49:44;;;;;;;2.95;0.90;;;20.10;99.90;;;;;;4943454;28;20088;-73
2023/10/06 10:52:11;;;;;;;1.08;0.60;;;19.80;99.90;;;;;;4929941;28;20042;-73
2023/10/06 10:54:42;;;;;;;3.47;0.65;;;19.60;99.90;;;;;;4951376;28;20098;-74
2023/10/06 10:57:19;;;;;;;2.35;0.50;;;19.50;99.90;;;;;;4962894;28;20093;-74
2023/10/06 11:00:11;;;;;;;0.73;0.20;;;19.20;99.90;;;;;;4950397;28;20136;-74
2023/10/06 11:02:59;;;;;;;1.40;0.50;;;19.10;99.90;;;;;;4945550;28;20161;-74
2023/10/06 11:05:26;;;;;;;0.80;0.30;;;18.90;99.90;;;;;;4948636;28;20043;-73
2023/10/06 11:08:00;;;;;;;2.88;0.70;;;18.80;99.90;;;;;;4957639;28;20559;-73
2023/10/06 11:10:26;;;;;;;2.53;0.45;;;18.80;99.90;;;;;;4961863;28;20273;-74
2023/10/06 11:13:20;;;;;;;3.72;0.80;;;18.80;99.90;;;;;;4949881;28;20488;-74
2023/10/06 11:15:49;;;;;;;0.77;0.40;;;18.70;99.90;;;;;;4945373;28;20433;-73
2023/10/06 11:18:17;;;;;;;1.17;0.43;;;18.60;99.90;;;;;;4962384;28;20074;-74
2023/10/06 11:20:44;;;;;;;1.90;0.28;;;18.50;99.90;;;;;;4952312;28;20054;-74
2023/10/06 11:23:10;;;;;;;2.85;0.45;;;18.50;99.90;;;;;;4957310;28;20043;-74
2023/10/06 11:25:46;;;;;;;4.55;0.93;;;18.60;99.90;;;;;;4951808;28;20054;-74
2023/10/06 11:28:12;;;;;;;2.83;0.57;;;18.70;99.90;;;;;;4929983;28;20042;-74
2023/10/06 11:30:41;;;;;;;3.13;0.30;;;18.70;99.90;;;;;;4948137;28;20055;-73
2023/10/06 11:33:11;;;;;;;1.88;0.63;;;18.70;99.90;;;;;;4942124;28;20065;-73
2023/10/06 11:35:38;;;;;;;1.58;0.68;;;18.80;99.90;;;;;;4937367;28;20436;-73
2023/10/06 11:38:15;;;;;;;2.15;0.32;;;19.00;99.90;;;;;;4944310;28;20050;-74
2023/10/06 11:40:42;;;;;;;2.08;0.73;;;19.20;99.90;;;;;;4946448;28;20049;-74
2023/10/06 11:43:12;;;;;;;1.27;0.52;;;19.50;99.90;;;;;;4943694;28;20487;-74
2023/10/06 11:45:42;;;;;;;1.55;0.77;;;19.60;99.90;;;;;;4939951;28;20146;-75
2023/10/06 11:48:28;;;;;;;1.48;0.68;;;19.50;99.90;;;;;;4950835;28;20109;-74
2023/10/06 11:51:02;;;;;;;3.55;1.58;;;19.40;99.90;;;;;;4960957;28;20061;-74
2023/10/06 11:53:28;;;;;;;1.13;0.40;;;19.20;99.90;;;;;;4938569;28;20098;-74
2023/10/06 11:56:22;;;;;;;1.27;0.52;;;19.10;99.90;;;;;;4945787;28;20042;-74
2023/10/06 11:58:48;;;;;;;2.95;0.63;;;19.20;99.90;;;;;;4943869;28;20348;-73
2023/10/06 12:01:34;;;;;;;2.60;0.80;;;19.40;99.90;;;;;;4945068;28;20058;-74
2023/10/06 12:04:00;;;;;;;1.55;0.55;;;19.80;99.90;;;;;;4942865;28;20142;-73
2023/10/06 12:06:39;;;;;;;2.00;0.38;;;20.60;99.90;;;;;;4941572;28;20268;-73
2023/10/06 12:09:08;;;;;;;5.50;0.57;;;21.30;99.90;;;;;;4944149;28;20065;-74
2023/10/06 12:11:33;;;;;;;1.65;0.40;;;21.40;99.90;;;;;;4945238;28;20054;-75
2023/10/06 12:13:59;;;;;;;3.25;0.63;;;21.60;99.90;;;;;;4957071;28;20035;-74
2023/10/06 12:16:25;;;;;;;2.53;0.47;;;21.80;99.90;;;;;;4937711;28;20030;-74
2023/10/06 12:18:51;;;;;;;1.83;0.43;;;22.00;99.90;;;;;;4947232;28;20050;-74
2023/10/06 12:21:17;;;;;;;2.20;0.40;;;22.60;99.90;;;;;;4950451;28;20043;-74
2023/10/06 12:23:47;;;;;;;1.58;0.47;;;23.10;99.90;;;;;;4951764;28;20154;-74
2023/10/06 12:26:12;;;;;;;1.58;0.50;;;23.10;99.90;;;;;;4952049;28;20058;-74
2023/10/06 12:28:38;;;;;;;3.60;0.65;;;22.70;99.90;;;;;;4938076;28;20043;-74
2023/10/06 12:31:08;;;;;;;1.73;0.50;;;22.20;99.90;;;;;;4953930;28;20082;-74
2023/10/06 12:33:33;;;;;;;0.93;0.43;;;21.90;99.90;;;;;;4942750;28;20126;-75
2023/10/06 12:36:03;;;;;;;2.65;0.40;;;21.60;99.90;;;;;;4960524;28;20857;-75
2023/10/06 12:38:30;;;;;;;1.23;0.50;;;21.40;99.90;;;;;;4948921;28;20074;-75
2023/10/06 12:40:56;;;;;;;3.88;0.70;;;21.30;99.90;;;;;;4945699;28;20380;-75
2023/10/06 12:43:22;;;;;;;2.53;0.30;;;21.30;99.90;;;;;;4940032;28;20074;-75
2023/10/06 12:45:48;;;;;;;0.60;0.20;;;21.50;99.90;;;;;;4964687;28;20137;-75
2023/10/06 12:48:14;;;;;;;2.25;0.65;;;21.50;99.90;;;;;;4950541;28;20130;-74
2023/10/06 12:50:43;;;;;;;2.78;0.70;;;21.50;99.90;;;;;;4948423;28;20035;-75
2023/10/06 12:53:10;;;;;;;0.45;0.22;;;21.80;99.90;;;;;;4947884;28;20045;-75
2023/10/06 12:55:36;;;;;;;0.90;0.20;;;21.90;99.90;;;;;;4950277;28;20035;-74
2023/10/06 12:58:06;;;;;;;0.95;0.30;;;21.80;99.90;;;;;;4946834;28;20114;-75
2023/10/06 13:00:32;;;;;;;0.93;0.30;;;21.70;99.90;;;;;;4949342;28;20042;-75
2023/10/06 13:02:57;;;;;;;1.58;0.30;;;21.40;99.90;;;;;;4960457;28;20475;-75
2023/10/06 13:05:24;;;;;;;1.63;0.10;;;21.10;99.90;;;;;;4951033;28;20226;-75
2023/10/06 13:07:51;;;;;;;0.95;0.30;;;20.90;99.90;;;;;;4949879;28;20061;-76
2023/10/06 13:10:22;;;;;;;3.67;0.30;;;20.70;99.90;;;;;;4961641;28;20407;-76
2023/10/06 13:12:49;;;;;;;1.67;0.20;;;20.50;99.90;;;;;;4950190;28;20391;-73
2023/10/06 13:15:17;;;;;;;2.80;0.55;;;20.30;99.90;;;;;;4966185;28;20406;-74
2023/10/06 13:17:50;;;;;;;2.92;0.55;;;20.10;99.90;;;;;;4954411;28;20061;-75